ESPAESNS

Guest
Details From ESPA - Lulea Kallax
To ESNS - Skelleftea
Flight Number -
Tags Generated
Created
Modified
Stats Distance 62 nm / 114 km
Max Altitude 0 ft / 0 m
Waypoints 2
Social Downloads 1
Likes 0
Share VATSIM

Download

Looking for another format? Having issues loading an existing format? Contact us
Advertisement - Login to hide

Notes

Generated

Route

ESPA ESNS

ID Type Via Altitude Latitude Longitude Leg Dist Tot Dist Heading (true) Name
O ESPA APT - 0 ft / 0 m 65.55480˚ 22.09741˚ - 0 nm - -
O ESNS APT - 0 ft / 0 m 64.62741˚ 21.05578˚ 61 nm 61 nm 206° / 205° -

Altitude Profile

Advertisement - Login to hide

ESPA

Details ICAO ESPA (LLA)
Name Lulea Kallax
Region Sweden
Timezone Europe/Stockholm (UTC+1.0)
Stats Elevation 65 ft / 20 m (AMSL)
Location 65.543757° 22.121979°
Runways 1
Magnetic Variation 9.326° E

METAR

ESPA 161320Z 00000KT 8000 BR OVC004 M06/M07 Q1002

Decode

TAF

Not found

Departure Runways

ID Width Length Bearing (true) Bearing (mag) Surface Threshold Offset Overrun Length
14 148 ft / 45 m 10,957 ft / 3,340 m 137.32° 127.99° Asphalt 0 ft / 0 m 0 ft / 0 m
32 148 ft / 45 m 10,957 ft / 3,340 m 317.36° 308.03° Asphalt 0 ft / 0 m 0 ft / 0 m

ESNS

Details ICAO ESNS (SFT)
Name Skelleftea
Region Sweden
Timezone Europe/Stockholm (UTC+1.0)
Stats Elevation 155 ft / 47 m (AMSL)
Location 64.624772° 21.076867°
Runways 1
Magnetic Variation 8.559° E

METAR

ESNS 161320Z AUTO 27004KT 9999 -SN OVC007/// M05/M06 Q1002

Decode

TAF

Not found

Destination Runways

ID Width Length Bearing (true) Bearing (mag) Surface Threshold Offset Overrun Length
10 148 ft / 45 m 6,872 ft / 2,095 m 106.26° 97.70° Asphalt 0 ft / 0 m 0 ft / 0 m
28 148 ft / 45 m 6,872 ft / 2,095 m 286.30° 277.74° Asphalt 0 ft / 0 m 0 ft / 0 m

Approach Navaids

Runway Type Ident Frequency Range Bearing (true) Bearing (mag) Slope Elevation
28 Localiser NS 109.50 MHz 18 nm / 33 km 286.26° 277.70° - 155 ft / 47 m (AMSL)
28 Glidescope NS 109.50 MHz 10 nm / 19 km 286.28° 277.72° 3.00° 155 ft / 47 m (AMSL)

Popular Alternatives